createdAt,value
2022-12-09T00:00:08.417Z,-0.8
2022-12-09T00:01:12.747Z,-0.8
2022-12-09T00:02:17.375Z,-0.7
2022-12-09T00:03:26.505Z,-0.7
2022-12-09T00:04:45.829Z,-0.7
2022-12-09T00:05:50.931Z,-0.7
2022-12-09T00:06:55.341Z,-0.6
2022-12-09T00:07:58.530Z,-0.6
2022-12-09T00:09:03.262Z,-0.6
2022-12-09T00:10:09.080Z,-0.6
2022-12-09T00:11:12.426Z,-0.7
2022-12-09T00:12:15.943Z,-0.6
2022-12-09T00:13:19.271Z,-0.5
2022-12-09T00:14:22.734Z,-0.5
2022-12-09T00:15:25.849Z,-0.5
2022-12-09T00:16:29.490Z,-0.5
2022-12-09T00:17:33.989Z,-0.5
2022-12-09T00:18:38.254Z,-0.6
2022-12-09T00:19:42.355Z,-0.6
2022-12-09T00:20:45.557Z,-0.6
2022-12-09T00:21:49.225Z,-0.6
2022-12-09T00:22:51.847Z,-0.6
2022-12-09T00:23:54.925Z,-0.6
2022-12-09T00:24:58.436Z,-0.7
2022-12-09T00:26:01.443Z,-0.7
2022-12-09T00:27:05.413Z,-0.7
2022-12-09T00:28:08.597Z,-0.7
2022-12-09T00:29:11.763Z,-0.7
2022-12-09T00:30:15.081Z,-0.7
2022-12-09T00:31:19.415Z,-0.7
2022-12-09T00:32:23.089Z,-0.7
2022-12-09T00:33:26.840Z,-0.7
2022-12-09T00:34:29.887Z,-0.7
2022-12-09T00:35:33.397Z,-0.7
2022-12-09T00:36:36.790Z,-0.7
2022-12-09T00:37:40.354Z,-0.7
2022-12-09T00:38:43.572Z,-0.7
2022-12-09T00:39:46.889Z,-0.7
2022-12-09T00:40:50.394Z,-0.7
2022-12-09T00:41:54.141Z,-0.7
2022-12-09T00:42:57.421Z,-0.7
2022-12-09T00:44:01.240Z,-0.7
2022-12-09T00:45:05.605Z,-0.7
2022-12-09T00:46:09.559Z,-0.6
2022-12-09T00:47:14.094Z,-0.6
2022-12-09T00:48:16.971Z,-0.6
2022-12-09T00:49:20.221Z,-0.6
2022-12-09T00:50:23.939Z,-0.6
2022-12-09T00:51:27.640Z,-0.6
2022-12-09T00:52:31.269Z,-0.6
2022-12-09T00:53:35.252Z,-0.6
2022-12-09T00:54:39.699Z,-0.6
2022-12-09T00:55:43.469Z,-0.6
2022-12-09T00:56:47.906Z,-0.6
2022-12-09T00:57:50.890Z,-0.6
2022-12-09T00:58:53.890Z,-0.6
2022-12-09T00:59:57.696Z,-0.5
2022-12-09T01:01:01.742Z,-0.5
2022-12-09T01:02:05.137Z,-0.5
2022-12-09T01:03:09.612Z,-0.5
2022-12-09T01:04:14.100Z,-0.5
2022-12-09T01:05:18.535Z,-0.5
2022-12-09T01:06:22.709Z,-0.5
2022-12-09T01:07:26.789Z,-0.4
2022-12-09T01:08:30.962Z,-0.4
2022-12-09T01:09:35.571Z,-0.4
2022-12-09T01:10:38.761Z,-0.4
2022-12-09T01:11:42.458Z,-0.4
2022-12-09T01:12:45.959Z,-0.4
2022-12-09T01:13:49.438Z,-0.4
2022-12-09T01:14:52.909Z,-0.4
2022-12-09T01:15:57.208Z,-0.3
2022-12-09T01:17:02.609Z,-0.3
2022-12-09T01:18:06.140Z,-0.3
2022-12-09T01:19:09.941Z,-0.3
2022-12-09T01:20:13.904Z,-0.3
2022-12-09T01:21:17.290Z,-0.3
2022-12-09T01:22:21.398Z,-0.3
2022-12-09T01:23:24.896Z,-0.3
2022-12-09T01:24:28.117Z,-0.3
2022-12-09T01:25:31.731Z,-0.3
2022-12-09T01:26:35.667Z,-0.3
2022-12-09T01:27:39.186Z,-0.3
2022-12-09T01:28:43.431Z,-0.3
2022-12-09T01:29:47.026Z,-0.3
2022-12-09T01:30:50.687Z,-0.3
2022-12-09T01:31:54.893Z,-0.3
2022-12-09T01:32:59.491Z,-0.2
2022-12-09T01:34:02.676Z,-0.2
2022-12-09T01:35:05.703Z,-0.2
2022-12-09T01:36:09.137Z,-0.2
2022-12-09T01:37:12.795Z,-0.2
2022-12-09T01:38:16.502Z,-0.2
2022-12-09T01:39:19.985Z,-0.2
2022-12-09T01:40:23.161Z,-0.2
2022-12-09T01:41:26.914Z,-0.2
2022-12-09T01:42:30.411Z,-0.2
2022-12-09T01:43:33.980Z,-0.3
2022-12-09T01:44:37.559Z,-0.3
2022-12-09T01:45:41.419Z,-0.3
2022-12-09T01:46:46.052Z,-0.3
2022-12-09T01:47:50.605Z,-0.3
2022-12-09T01:48:54.581Z,-0.3
2022-12-09T01:49:57.795Z,-0.4
2022-12-09T01:51:01.191Z,-0.4
2022-12-09T01:52:05.263Z,-0.4
2022-12-09T01:53:09.334Z,-0.4
2022-12-09T01:54:13.342Z,-0.4
2022-12-09T01:55:16.333Z,-0.4
2022-12-09T01:56:19.894Z,-0.4
2022-12-09T01:57:23.984Z,-0.5
2022-12-09T01:58:27.217Z,-0.5
2022-12-09T01:59:32.042Z,-0.5
2022-12-09T02:00:35.312Z,-0.5
2022-12-09T02:01:38.709Z,-0.5
2022-12-09T02:02:43.601Z,-0.5
2022-12-09T02:03:49.491Z,-0.5
2022-12-09T02:04:55.350Z,-0.6
2022-12-09T02:05:58.895Z,-0.7
2022-12-09T02:07:02.619Z,-0.6
2022-12-09T02:08:07.036Z,-0.6
2022-12-09T02:09:11.703Z,-0.6
2022-12-09T02:10:15.740Z,-0.6
2022-12-09T02:11:19.890Z,-0.6
2022-12-09T02:12:23.511Z,-0.6
2022-12-09T02:13:26.880Z,-0.6
2022-12-09T02:14:30.733Z,-0.6
2022-12-09T02:15:34.972Z,-0.6
2022-12-09T02:16:39.331Z,-0.6
2022-12-09T02:17:44.553Z,-0.6
2022-12-09T02:18:48.938Z,-0.6
2022-12-09T02:19:53.255Z,-0.6
2022-12-09T02:20:57.234Z,-0.6
2022-12-09T02:21:59.969Z,-0.6
2022-12-09T02:23:03.803Z,-0.6
2022-12-09T02:24:06.982Z,-0.6
2022-12-09T02:25:10.453Z,-0.5
2022-12-09T02:26:15.009Z,-0.5
2022-12-09T02:27:18.454Z,-0.5
2022-12-09T02:28:21.807Z,-0.4
2022-12-09T02:29:25.696Z,-0.5
2022-12-09T02:30:28.679Z,-0.5
2022-12-09T02:31:33.800Z,-0.6
2022-12-09T02:32:39.206Z,-0.6
2022-12-09T02:33:43.677Z,-0.6
2022-12-09T02:34:47.399Z,-0.5
2022-12-09T02:35:51.846Z,-0.5
2022-12-09T02:36:56.817Z,-0.5
2022-12-09T02:38:00.722Z,-0.5
2022-12-09T02:39:04.223Z,-0.5
2022-12-09T02:40:10.952Z,-0.4
2022-12-09T02:41:14.435Z,-0.4
2022-12-09T02:42:18.136Z,-0.5
2022-12-09T02:43:22.308Z,-0.5
2022-12-09T02:44:25.687Z,-0.4
2022-12-09T02:45:29.252Z,-0.4
2022-12-09T02:46:33.132Z,-0.4
2022-12-09T02:47:38.145Z,-0.4
2022-12-09T02:48:43.022Z,-0.4
2022-12-09T02:49:46.882Z,-0.4
2022-12-09T02:50:50.699Z,-0.5
2022-12-09T02:51:54.067Z,-0.5
2022-12-09T02:52:58.377Z,-0.6
2022-12-09T02:54:01.940Z,-0.7
2022-12-09T02:55:05.585Z,-0.7
2022-12-09T02:56:09.600Z,-0.6
2022-12-09T02:57:12.892Z,-0.6
2022-12-09T02:58:16.252Z,-0.6
2022-12-09T02:59:20.139Z,-0.7
2022-12-09T03:00:23.472Z,-0.7
2022-12-09T03:01:27.283Z,-0.7
2022-12-09T03:02:32.480Z,-0.7
2022-12-09T03:03:38.144Z,-0.7
2022-12-09T03:04:43.621Z,-0.7
2022-12-09T03:05:47.880Z,-0.7
2022-12-09T03:06:51.584Z,-0.7
2022-12-09T03:07:55.832Z,-0.7
2022-12-09T03:09:01.056Z,-0.7
2022-12-09T03:10:07.044Z,-0.8
2022-12-09T03:11:10.820Z,-0.8
2022-12-09T03:12:14.329Z,-0.7
2022-12-09T03:13:17.605Z,-0.7
2022-12-09T03:14:21.596Z,-0.8
2022-12-09T03:15:25.398Z,-0.8
2022-12-09T03:16:29.687Z,-0.8
2022-12-09T03:17:34.914Z,-0.8
2022-12-09T03:18:39.228Z,-0.7
2022-12-09T03:19:43.648Z,-0.7
2022-12-09T03:20:47.439Z,-0.7
2022-12-09T03:21:50.263Z,-0.7
2022-12-09T03:22:54.055Z,-0.7
2022-12-09T03:23:58.521Z,-0.7
2022-12-09T03:25:02.785Z,-0.7
2022-12-09T03:26:06.573Z,-0.8
2022-12-09T03:27:10.364Z,-0.8
2022-12-09T03:28:14.047Z,-0.8
2022-12-09T03:29:17.678Z,-0.8
2022-12-09T03:30:21.810Z,-0.8
2022-12-09T03:31:26.383Z,-0.8
2022-12-09T03:32:31.173Z,-0.8
2022-12-09T03:33:35.642Z,-0.8
2022-12-09T03:34:39.181Z,-0.9
2022-12-09T03:35:42.336Z,-0.9
2022-12-09T03:36:45.965Z,-0.9
2022-12-09T03:37:49.511Z,-0.9
2022-12-09T03:38:53.559Z,-0.9
2022-12-09T03:39:57.960Z,-0.9
2022-12-09T03:41:02.788Z,-0.9
2022-12-09T03:42:06.746Z,-1
2022-12-09T03:43:10.308Z,-1
2022-12-09T03:44:14.541Z,-1
2022-12-09T03:45:18.359Z,-1
2022-12-09T03:46:22.939Z,-1
2022-12-09T03:47:28.440Z,-1
2022-12-09T03:48:31.909Z,-0.9
2022-12-09T03:49:35.518Z,-0.9
2022-12-09T03:50:38.224Z,-0.9
2022-12-09T03:51:42.054Z,-0.9
2022-12-09T03:52:45.876Z,-1
2022-12-09T03:53:49.782Z,-1.1
2022-12-09T03:54:53.487Z,-1.2
2022-12-09T03:55:58.350Z,-1.2
2022-12-09T03:57:02.915Z,-1.2
2022-12-09T03:58:06.642Z,-1.1
2022-12-09T03:59:10.008Z,-1.2
2022-12-09T04:00:16.379Z,-1.2
2022-12-09T04:01:20.796Z,-1.2
2022-12-09T04:02:26.246Z,-1.1
2022-12-09T04:03:31.797Z,-1.1
2022-12-09T04:04:36.773Z,-1.2
2022-12-09T04:05:40.912Z,-1.2
2022-12-09T04:06:45.432Z,-1.2
2022-12-09T04:07:50.119Z,-1.2
2022-12-09T04:09:03.850Z,-1.2
2022-12-09T04:10:10.521Z,-1.2
2022-12-09T04:11:15.155Z,-1.2
2022-12-09T04:12:19.565Z,-1.2
2022-12-09T04:13:23.096Z,-1.2
2022-12-09T04:14:27.127Z,-1.2
2022-12-09T04:15:31.587Z,-1.2
2022-12-09T04:16:34.594Z,-1.3
2022-12-09T04:17:38.502Z,-1.3
2022-12-09T04:18:43.309Z,-1.3
2022-12-09T04:19:48.023Z,-1.2
2022-12-09T04:20:51.341Z,-1.2
2022-12-09T04:21:55.122Z,-1.2
2022-12-09T04:22:59.065Z,-1.2
2022-12-09T04:24:02.114Z,-1.2
2022-12-09T04:25:05.833Z,-1.2
2022-12-09T04:26:09.096Z,-1.2
2022-12-09T04:27:13.862Z,-1.1
2022-12-09T04:28:18.435Z,-1.1
2022-12-09T04:29:22.393Z,-1.1
2022-12-09T04:30:26.423Z,-1
2022-12-09T04:31:30.811Z,-1.1
2022-12-09T04:32:35.315Z,-1.1
2022-12-09T04:33:38.844Z,-1.1
2022-12-09T04:34:42.437Z,-1.1
2022-12-09T04:35:45.110Z,-1.1
2022-12-09T04:36:48.803Z,-1.1
2022-12-09T04:37:52.812Z,-1
2022-12-09T04:38:56.529Z,-1
2022-12-09T04:40:00.212Z,-1
2022-12-09T04:41:05.017Z,-1
2022-12-09T04:42:08.720Z,-1
2022-12-09T04:43:12.770Z,-1
2022-12-09T04:44:16.884Z,-1
2022-12-09T04:45:20.719Z,-1
2022-12-09T04:46:24.714Z,-1
2022-12-09T04:47:29.487Z,-1
2022-12-09T04:48:32.886Z,-1
2022-12-09T04:49:36.320Z,-1
2022-12-09T04:50:40.292Z,-1
2022-12-09T04:51:43.400Z,-1
2022-12-09T04:52:47.652Z,-0.9
2022-12-09T04:53:51.962Z,-0.9
2022-12-09T04:54:54.813Z,-0.9
2022-12-09T04:55:58.804Z,-0.9
2022-12-09T04:57:02.394Z,-0.9
2022-12-09T04:58:06.424Z,-0.9
2022-12-09T04:59:10.449Z,-0.9
2022-12-09T05:00:17.471Z,-0.9
2022-12-09T05:01:33.246Z,-1
2022-12-09T05:02:38.165Z,-1.1
2022-12-09T05:03:42.792Z,-1.2
2022-12-09T05:04:48.392Z,-1.2
2022-12-09T05:05:52.629Z,-1.2
2022-12-09T05:06:57.852Z,-1.2
2022-12-09T05:08:04.008Z,-1.3
2022-12-09T05:09:09.210Z,-1.3
2022-12-09T05:10:15.825Z,-1.3
2022-12-09T05:11:22.404Z,-1.4
2022-12-09T05:12:25.837Z,-1.3
2022-12-09T05:13:29.808Z,-1.3
2022-12-09T05:14:33.910Z,-1.3
2022-12-09T05:15:38.920Z,-1.3
2022-12-09T05:16:44.059Z,-1.4
2022-12-09T05:17:49.081Z,-1.4
2022-12-09T05:18:54.013Z,-1.4
2022-12-09T05:19:58.625Z,-1.4
2022-12-09T05:21:02.435Z,-1.4
2022-12-09T05:22:06.466Z,-1.4
2022-12-09T05:23:12.017Z,-1.4
2022-12-09T05:24:16.100Z,-1.4
2022-12-09T05:25:20.385Z,-1.4
2022-12-09T05:26:24.922Z,-1.4
2022-12-09T05:27:29.385Z,-1.3
2022-12-09T05:28:33.475Z,-1.3
2022-12-09T05:29:37.514Z,-1.3
2022-12-09T05:30:42.277Z,-1.4
2022-12-09T05:31:47.335Z,-1.4
2022-12-09T05:32:51.565Z,-1.4
2022-12-09T05:33:57.095Z,-1.4
2022-12-09T05:35:01.452Z,-1.4
2022-12-09T05:36:04.942Z,-1.4
2022-12-09T05:37:08.951Z,-1.4
2022-12-09T05:38:12.284Z,-1.3
2022-12-09T05:39:16.440Z,-1.3
2022-12-09T05:40:20.597Z,-1.4
2022-12-09T05:41:25.159Z,-1.4
2022-12-09T05:42:29.393Z,-1.4
2022-12-09T05:43:33.361Z,-1.3
2022-12-09T05:44:37.919Z,-1.3
2022-12-09T05:45:42.070Z,-1.3
2022-12-09T05:46:47.759Z,-1.3
2022-12-09T05:47:52.756Z,-1.4
2022-12-09T05:48:57.693Z,-1.4
2022-12-09T05:50:13.321Z,-1.3
2022-12-09T05:51:19.965Z,-1.3
2022-12-09T05:52:24.510Z,-1.3
2022-12-09T05:53:29.114Z,-1.3
2022-12-09T05:54:34.578Z,-1.3
2022-12-09T05:55:39.490Z,-1.4
2022-12-09T05:56:51.205Z,-1.3
2022-12-09T05:57:55.698Z,-1.4
2022-12-09T05:59:00.208Z,-1.3
2022-12-09T06:00:06.689Z,-1.3
2022-12-09T06:01:12.546Z,-1.3
2022-12-09T06:02:17.474Z,-1.3
2022-12-09T06:03:22.441Z,-1.3
2022-12-09T06:04:28.740Z,-1.3
2022-12-09T06:05:34.470Z,-1.3
2022-12-09T06:06:40.561Z,-1.3
2022-12-09T06:07:46.537Z,-1.2
2022-12-09T06:08:51.544Z,-1.2
2022-12-09T06:09:56.412Z,-1.2
2022-12-09T06:11:01.326Z,-1.2
2022-12-09T06:12:06.034Z,-1.2
2022-12-09T06:13:11.078Z,-1.2
2022-12-09T06:14:15.052Z,-1.1
2022-12-09T06:15:35.122Z,-1.2
2022-12-09T06:16:41.517Z,-1.2
2022-12-09T06:17:46.687Z,-1.3
2022-12-09T06:18:52.583Z,-1.3
2022-12-09T06:19:57.089Z,-1.2
2022-12-09T06:21:00.880Z,-1.3
2022-12-09T06:22:05.452Z,-1.3
2022-12-09T06:23:09.133Z,-1.3
2022-12-09T06:24:13.664Z,-1.2
2022-12-09T06:25:18.695Z,-1.3
2022-12-09T06:26:22.999Z,-1.2
2022-12-09T06:27:28.160Z,-1.2
2022-12-09T06:28:32.022Z,-1.2
2022-12-09T06:29:35.948Z,-1.2
2022-12-09T06:30:39.456Z,-1.2
2022-12-09T06:31:44.246Z,-1.1
2022-12-09T06:32:49.833Z,-1.1
2022-12-09T06:34:02.024Z,-1.1
2022-12-09T06:35:11.149Z,-1.1
2022-12-09T06:36:16.222Z,-1.1
2022-12-09T06:37:20.681Z,-1
2022-12-09T06:38:24.324Z,-1.1
2022-12-09T06:39:28.540Z,-1.1
2022-12-09T06:40:32.913Z,-1.1
2022-12-09T06:41:37.226Z,-1.1
2022-12-09T06:42:41.322Z,-1
2022-12-09T06:43:46.137Z,-1.1
2022-12-09T06:44:50.586Z,-1.1
2022-12-09T06:45:54.741Z,-1.1
2022-12-09T06:46:59.619Z,-1.1
2022-12-09T06:48:04.820Z,-1.1
2022-12-09T06:49:09.506Z,-1.1
2022-12-09T06:50:14.603Z,-1.1
2022-12-09T06:51:18.417Z,-1.1
2022-12-09T06:52:22.872Z,-1.1
2022-12-09T06:53:26.535Z,-1.1
2022-12-09T06:54:30.966Z,-1.1
2022-12-09T06:55:35.015Z,-1.1
2022-12-09T06:56:39.198Z,-1.1
2022-12-09T06:57:43.862Z,-1
2022-12-09T06:58:49.099Z,-1
2022-12-09T06:59:53.774Z,-1.1
2022-12-09T07:00:58.031Z,-1
2022-12-09T07:02:03.723Z,-1
2022-12-09T07:03:10.107Z,-1.1
2022-12-09T07:04:16.071Z,-1
2022-12-09T07:05:23.280Z,-1
2022-12-09T07:06:29.610Z,-1
2022-12-09T07:07:35.130Z,-1
2022-12-09T07:08:40.393Z,-1
2022-12-09T07:09:44.952Z,-0.9
2022-12-09T07:10:59.479Z,-0.9
2022-12-09T07:12:04.865Z,-0.9
2022-12-09T07:13:08.580Z,-1
2022-12-09T07:14:13.541Z,-1
2022-12-09T07:15:18.168Z,-1.1
2022-12-09T07:16:22.874Z,-1.1
2022-12-09T07:17:28.806Z,-1.1
2022-12-09T07:18:33.702Z,-1
2022-12-09T07:19:39.479Z,-1
2022-12-09T07:20:43.519Z,-1
2022-12-09T07:21:49.469Z,-1
2022-12-09T07:22:53.806Z,-1
2022-12-09T07:23:57.766Z,-1
2022-12-09T07:25:01.590Z,-0.9
2022-12-09T07:26:05.488Z,-0.9
2022-12-09T07:27:21.164Z,-0.9
2022-12-09T07:28:25.002Z,-0.9
2022-12-09T07:29:28.883Z,-0.9
2022-12-09T07:30:33.903Z,-0.9
2022-12-09T07:31:38.991Z,-0.9
2022-12-09T07:32:44.404Z,-0.9
2022-12-09T07:33:50.856Z,-0.9
2022-12-09T07:34:56.322Z,-0.9
2022-12-09T07:36:01.793Z,-0.9
2022-12-09T07:37:05.839Z,-0.9
2022-12-09T07:38:10.360Z,-0.9
2022-12-09T07:39:14.690Z,-0.9
2022-12-09T07:40:19.108Z,-0.9
2022-12-09T07:41:23.015Z,-0.9
2022-12-09T07:42:27.592Z,-0.9
2022-12-09T07:43:31.213Z,-0.9
2022-12-09T07:44:35.741Z,-0.9
2022-12-09T07:45:40.959Z,-0.9
2022-12-09T07:46:46.243Z,-0.9
2022-12-09T07:47:51.470Z,-0.9
2022-12-09T07:48:57.273Z,-0.9
2022-12-09T07:50:09.791Z,-0.9
2022-12-09T07:51:14.033Z,-0.9
2022-12-09T07:52:18.040Z,-0.9
2022-12-09T07:53:22.971Z,-0.9
2022-12-09T07:54:27.084Z,-0.9
2022-12-09T07:55:30.649Z,-0.9
2022-12-09T07:56:35.089Z,-0.9
2022-12-09T07:57:41.213Z,-0.9
2022-12-09T07:58:45.832Z,-0.9
2022-12-09T07:59:50.503Z,-0.8
2022-12-09T08:00:54.681Z,-0.8
2022-12-09T08:02:08.952Z,-0.8
2022-12-09T08:03:13.909Z,-0.8
2022-12-09T08:04:19.959Z,-0.8
2022-12-09T08:05:26.493Z,-0.8
2022-12-09T08:06:33.139Z,-0.8
2022-12-09T08:07:47.438Z,-0.8
2022-12-09T08:08:53.898Z,-0.9
2022-12-09T08:09:59.485Z,-0.9
2022-12-09T08:11:04.547Z,-0.9
2022-12-09T08:12:10.152Z,-0.9
2022-12-09T08:13:14.749Z,-0.8
2022-12-09T08:14:18.728Z,-0.8
2022-12-09T08:15:22.654Z,-0.9
2022-12-09T08:16:29.267Z,-0.8
2022-12-09T08:17:34.273Z,-0.8
2022-12-09T08:18:39.638Z,-0.9
2022-12-09T08:19:45.079Z,-0.9
2022-12-09T08:20:49.900Z,-0.9
2022-12-09T08:21:57.449Z,-0.9
2022-12-09T08:23:02.799Z,-0.8
2022-12-09T08:24:07.720Z,-0.8
2022-12-09T08:25:15.138Z,-0.9
2022-12-09T08:26:21.391Z,-0.9
2022-12-09T08:27:26.796Z,-0.8
2022-12-09T08:28:31.520Z,-0.9
2022-12-09T08:29:36.620Z,-0.9
2022-12-09T08:30:41.461Z,-0.9
2022-12-09T08:31:48.227Z,-0.9
2022-12-09T08:32:54.010Z,-0.9
2022-12-09T08:34:00.044Z,-0.9
2022-12-09T08:35:06.428Z,-0.9
2022-12-09T08:36:10.897Z,-0.9
2022-12-09T08:37:15.191Z,-0.9
2022-12-09T08:38:19.168Z,-0.9
2022-12-09T08:39:24.513Z,-0.9
2022-12-09T08:40:29.513Z,-0.8
2022-12-09T08:41:33.329Z,-0.8
2022-12-09T08:42:37.911Z,-0.8
2022-12-09T08:43:42.901Z,-0.7
2022-12-09T08:44:47.045Z,-0.7
2022-12-09T08:45:51.605Z,-0.7
2022-12-09T08:46:56.887Z,-0.6
2022-12-09T08:48:02.082Z,-0.7
2022-12-09T08:49:08.269Z,-0.7
2022-12-09T08:50:17.407Z,-0.7
2022-12-09T08:51:22.235Z,-0.7
2022-12-09T08:52:26.812Z,-0.7
2022-12-09T08:53:31.613Z,-0.7
2022-12-09T08:54:35.794Z,-0.7
2022-12-09T08:55:40.179Z,-0.7
2022-12-09T08:56:45.543Z,-0.7
2022-12-09T08:57:49.510Z,-0.7
2022-12-09T08:58:53.234Z,-0.7
2022-12-09T08:59:57.845Z,-0.7
2022-12-09T09:01:03.206Z,-0.7
2022-12-09T09:02:09.203Z,-0.7
2022-12-09T09:03:14.843Z,-0.6
2022-12-09T09:04:21.797Z,-0.6
2022-12-09T09:05:28.441Z,-0.6
2022-12-09T09:06:35.155Z,-0.6
2022-12-09T09:07:41.769Z,-0.6
2022-12-09T09:08:47.771Z,-0.6
2022-12-09T09:09:53.902Z,-0.6
2022-12-09T09:11:00.008Z,-0.5
2022-12-09T09:12:05.415Z,-0.5
2022-12-09T09:13:10.295Z,-0.5
2022-12-09T09:14:14.945Z,-0.5
2022-12-09T09:15:20.144Z,-0.5
2022-12-09T09:16:25.570Z,-0.5
2022-12-09T09:17:30.627Z,-0.4
2022-12-09T09:18:36.745Z,-0.4
2022-12-09T09:19:42.494Z,-0.3
2022-12-09T09:20:47.637Z,-0.3
2022-12-09T09:21:53.279Z,-0.3
2022-12-09T09:23:06.797Z,-0.2
2022-12-09T09:24:12.869Z,-0.3
2022-12-09T09:25:18.372Z,-0.3
2022-12-09T09:26:23.798Z,-0.2
2022-12-09T09:27:28.377Z,-0.2
2022-12-09T09:28:34.784Z,-0.2
2022-12-09T09:29:38.983Z,-0.2
2022-12-09T09:30:43.950Z,-0.2
2022-12-09T09:31:49.501Z,-0.3
2022-12-09T09:32:55.169Z,-0.3
2022-12-09T09:34:01.944Z,-0.2
2022-12-09T09:35:07.938Z,-0.2
2022-12-09T09:36:14.175Z,-0.2
2022-12-09T09:37:18.343Z,-0.2
2022-12-09T09:38:22.543Z,-0.2
2022-12-09T09:39:28.065Z,-0.2
2022-12-09T09:40:32.490Z,-0.3
2022-12-09T09:41:37.864Z,-0.4
2022-12-09T09:42:42.169Z,-0.4
2022-12-09T09:43:46.490Z,-0.4
2022-12-09T09:44:51.408Z,-0.5
2022-12-09T09:45:56.178Z,-0.4
2022-12-09T09:47:02.044Z,-0.5
2022-12-09T09:48:07.399Z,-0.4
2022-12-09T09:49:12.200Z,-0.4
2022-12-09T09:50:19.673Z,-0.4
2022-12-09T09:51:25.400Z,-0.3
2022-12-09T09:52:30.382Z,-0.3
2022-12-09T09:53:34.856Z,-0.2
2022-12-09T09:54:39.366Z,-0.2
2022-12-09T09:55:45.423Z,-0.2
2022-12-09T09:56:49.827Z,-0.2
2022-12-09T09:57:54.326Z,-0.2
2022-12-09T09:58:59.561Z,-0.2
2022-12-09T10:00:14.410Z,-0.2
2022-12-09T10:01:22.965Z,-0.2
2022-12-09T10:02:29.639Z,-0.3
2022-12-09T10:03:37.163Z,-0.2
2022-12-09T10:04:44.296Z,-0.2
2022-12-09T10:05:50.845Z,-0.2
2022-12-09T10:07:00.118Z,-0.2
2022-12-09T10:08:14.457Z,-0.2
2022-12-09T10:09:20.887Z,-0.2
2022-12-09T10:10:27.240Z,-0.2
2022-12-09T10:11:35.372Z,-0.2
2022-12-09T10:12:42.475Z,-0.2
2022-12-09T10:13:49.385Z,-0.2
2022-12-09T10:14:56.114Z,-0.1
2022-12-09T10:16:02.706Z,-0.1
2022-12-09T10:17:09.531Z,-0.1
2022-12-09T10:18:16.063Z,-0.1
2022-12-09T10:19:21.556Z,-0.1
2022-12-09T10:20:28.632Z,-0.1
2022-12-09T10:21:33.457Z,-0.1
2022-12-09T10:22:39.000Z,-0.1
2022-12-09T10:23:43.399Z,0
2022-12-09T10:24:48.534Z,-0.1
2022-12-09T10:25:53.872Z,-0.1
2022-12-09T10:26:58.543Z,-0.1
2022-12-09T10:28:03.104Z,-0.2
2022-12-09T10:29:07.024Z,-0.2
2022-12-09T10:30:14.038Z,-0.2
2022-12-09T10:31:20.372Z,-0.2
2022-12-09T10:32:25.685Z,-0.2
2022-12-09T10:33:31.415Z,-0.2
2022-12-09T10:34:36.489Z,-0.2
2022-12-09T10:35:42.452Z,-0.2
2022-12-09T10:36:47.376Z,-0.3
2022-12-09T10:37:52.629Z,-0.3
2022-12-09T10:38:58.208Z,-0.3
2022-12-09T10:40:03.146Z,-0.3
2022-12-09T10:41:07.999Z,-0.2
2022-12-09T10:42:12.904Z,-0.2
2022-12-09T10:43:17.635Z,-0.2
2022-12-09T10:44:22.466Z,-0.3
2022-12-09T10:46:20.950Z,-0.2
2022-12-09T10:47:30.104Z,-0.2
2022-12-09T10:48:38.631Z,-0.3
2022-12-09T10:49:43.917Z,-0.2
2022-12-09T10:50:50.148Z,-0.3
2022-12-09T10:51:55.511Z,-0.3
2022-12-09T10:53:01.730Z,-0.3
2022-12-09T10:54:06.345Z,-0.3
2022-12-09T10:55:11.299Z,-0.3
2022-12-09T10:56:15.503Z,-0.2
2022-12-09T10:57:20.232Z,-0.2
2022-12-09T10:58:24.351Z,-0.2
2022-12-09T10:59:28.614Z,-0.3
2022-12-09T11:00:37.766Z,-0.3
2022-12-09T11:01:43.037Z,-0.3
2022-12-09T11:02:47.586Z,-0.3
2022-12-09T11:03:52.608Z,-0.3
2022-12-09T11:04:59.218Z,-0.3
2022-12-09T11:06:06.297Z,-0.2
2022-12-09T11:07:13.020Z,-0.1
2022-12-09T11:08:19.131Z,-0.1
2022-12-09T11:09:26.175Z,-0.1
2022-12-09T11:10:33.243Z,-0.1
2022-12-09T11:11:38.729Z,-0.1
2022-12-09T11:12:45.779Z,0
2022-12-09T11:13:50.601Z,0
2022-12-09T11:14:56.258Z,0
2022-12-09T11:16:01.241Z,0.1
2022-12-09T11:17:06.397Z,0.1
2022-12-09T11:18:12.733Z,0.1
2022-12-09T11:19:18.388Z,0.2
2022-12-09T11:20:25.481Z,0.2
2022-12-09T11:21:31.710Z,0.2
2022-12-09T11:22:38.331Z,0.2
2022-12-09T11:23:43.943Z,0.3
2022-12-09T11:24:48.985Z,0.3
2022-12-09T11:25:53.935Z,0.3
2022-12-09T11:26:59.962Z,0.3
2022-12-09T11:28:04.775Z,0.3
2022-12-09T11:29:10.044Z,0.3
2022-12-09T11:30:20.576Z,0.3
2022-12-09T11:31:38.145Z,0.3
2022-12-09T11:32:43.165Z,0.3
2022-12-09T11:33:49.145Z,0.4
2022-12-09T11:34:55.164Z,0.2
2022-12-09T11:36:00.713Z,0.2
2022-12-09T11:37:04.955Z,0.2
2022-12-09T11:38:08.491Z,0.2
2022-12-09T11:39:12.481Z,0.2
2022-12-09T11:40:15.651Z,0.1
2022-12-09T11:41:18.080Z,0.1
2022-12-09T11:42:21.671Z,0.1
2022-12-09T11:43:24.541Z,0.1
2022-12-09T11:44:27.882Z,0.2
2022-12-09T11:45:31.007Z,0.2
2022-12-09T11:46:34.450Z,0.3
2022-12-09T11:48:44.178Z,0.3
2022-12-09T11:49:47.826Z,0.3
2022-12-09T11:50:50.657Z,0.2
2022-12-09T11:51:54.365Z,0.3
2022-12-09T11:52:57.087Z,0.3
2022-12-09T11:54:05.369Z,0.3
2022-12-09T11:55:09.079Z,0.3
2022-12-09T11:56:12.046Z,0.3
2022-12-09T11:57:14.894Z,0.3
2022-12-09T11:58:18.244Z,0.2
2022-12-09T11:59:21.309Z,0.2
2022-12-09T12:00:23.904Z,0.1
2022-12-09T12:01:27.894Z,0.1
2022-12-09T12:02:30.874Z,0.1
2022-12-09T12:03:33.919Z,0.1
2022-12-09T12:04:37.171Z,0.1
2022-12-09T12:05:40.352Z,0.1
2022-12-09T12:06:43.366Z,0.1
2022-12-09T12:07:46.096Z,0.1
2022-12-09T12:08:49.354Z,0.1
2022-12-09T12:09:52.900Z,0.2
2022-12-09T12:10:55.788Z,0.1
2022-12-09T12:11:59.218Z,0.1
2022-12-09T12:13:02.298Z,0.1
2022-12-09T12:14:05.153Z,0.1
2022-12-09T12:15:07.937Z,0.1
2022-12-09T12:16:11.030Z,0.2
2022-12-09T12:17:14.428Z,0.2
2022-12-09T12:18:17.679Z,0.3
2022-12-09T12:19:20.738Z,0.3
2022-12-09T12:20:23.708Z,0.3
2022-12-09T12:21:27.091Z,0.3
2022-12-09T12:22:30.800Z,0.2
2022-12-09T12:23:34.211Z,0.2
2022-12-09T12:24:37.430Z,0.2
2022-12-09T12:25:40.890Z,0.3
2022-12-09T12:26:44.417Z,0.3
2022-12-09T12:27:47.575Z,0.3
2022-12-09T12:29:08.521Z,0.3
2022-12-09T12:30:12.249Z,0.3
2022-12-09T12:31:15.464Z,0.3
2022-12-09T12:32:18.502Z,0.3
2022-12-09T12:34:28.157Z,0.3
2022-12-09T12:35:41.988Z,0.4
2022-12-09T12:36:44.748Z,0.3
2022-12-09T12:37:48.022Z,0.3
2022-12-09T12:38:50.892Z,0.3
2022-12-09T12:39:54.349Z,0.3
2022-12-09T12:40:57.628Z,0.3
2022-12-09T12:42:01.562Z,0.3
2022-12-09T12:43:04.617Z,0.2
2022-12-09T12:44:07.118Z,0.2
2022-12-09T12:45:10.749Z,0.2
2022-12-09T12:46:14.030Z,0.2
2022-12-09T12:47:17.484Z,0.2
2022-12-09T12:48:20.895Z,0.2
2022-12-09T12:49:23.680Z,0.2
2022-12-09T12:50:26.722Z,0.3
2022-12-09T12:51:30.148Z,0.3
2022-12-09T12:53:03.026Z,0.3
2022-12-09T12:54:06.104Z,0.3
2022-12-09T12:55:09.533Z,0.3
2022-12-09T12:56:12.671Z,0.3
2022-12-09T12:57:16.670Z,0.3
2022-12-09T12:58:19.370Z,0.3
2022-12-09T12:59:22.632Z,0.4
2022-12-09T13:00:25.334Z,0.4
2022-12-09T13:01:29.331Z,0.4
2022-12-09T13:02:32.838Z,0.4
2022-12-09T13:03:35.611Z,0.4
2022-12-09T13:04:38.383Z,0.4
2022-12-09T13:05:41.360Z,0.4
2022-12-09T13:06:44.126Z,0.4
2022-12-09T13:07:48.265Z,0.4
2022-12-09T13:08:52.041Z,0.3
2022-12-09T13:09:55.445Z,0.3
2022-12-09T13:10:58.525Z,0.3
2022-12-09T13:12:01.629Z,0.3
2022-12-09T13:13:05.362Z,0.3
2022-12-09T13:14:08.685Z,0.3
2022-12-09T13:15:12.159Z,0.3
2022-12-09T13:16:15.788Z,0.2
2022-12-09T13:17:19.481Z,0.2
2022-12-09T13:18:22.834Z,0.3
2022-12-09T13:19:26.262Z,0.2
2022-12-09T13:20:29.318Z,0.2
2022-12-09T13:21:32.086Z,0.2
2022-12-09T13:22:35.613Z,0.2
2022-12-09T13:23:38.598Z,0.2
2022-12-09T13:24:41.786Z,0.2
2022-12-09T13:25:45.320Z,0.3
2022-12-09T13:26:48.758Z,0.3
2022-12-09T13:27:51.941Z,0.2
2022-12-09T13:28:55.664Z,0.2
2022-12-09T13:29:58.995Z,0.2
2022-12-09T13:31:02.815Z,0.2
2022-12-09T13:32:06.220Z,0.2
2022-12-09T13:33:09.656Z,0.2
2022-12-09T13:34:13.056Z,0.2
2022-12-09T13:35:16.311Z,0.2
2022-12-09T13:36:19.718Z,0.2
2022-12-09T13:37:22.205Z,0.2
2022-12-09T13:38:25.462Z,0.2
2022-12-09T13:39:29.191Z,0.2
2022-12-09T13:40:32.303Z,0.3
2022-12-09T13:41:35.148Z,0.3
2022-12-09T13:42:48.154Z,0.3
2022-12-09T13:43:51.624Z,0.3
2022-12-09T13:44:55.201Z,0.3
2022-12-09T13:45:58.797Z,0.3
2022-12-09T13:47:02.236Z,0.3
2022-12-09T13:48:05.640Z,0.4
2022-12-09T13:49:08.617Z,0.4
2022-12-09T13:50:12.813Z,0.4
2022-12-09T13:51:15.855Z,0.4
2022-12-09T13:52:19.371Z,0.5
2022-12-09T13:53:22.279Z,0.5
2022-12-09T13:54:25.885Z,0.5
2022-12-09T13:55:28.246Z,0.5
2022-12-09T13:56:31.715Z,0.5
2022-12-09T13:57:35.038Z,0.4
2022-12-09T13:58:38.093Z,0.5
2022-12-09T13:59:41.571Z,0.4
2022-12-09T14:00:45.567Z,0.4
2022-12-09T14:01:48.545Z,0.4
2022-12-09T14:02:52.964Z,0.4
2022-12-09T14:03:56.829Z,0.4
2022-12-09T14:04:59.532Z,0.4
2022-12-09T14:06:02.685Z,0.4
2022-12-09T14:07:11.554Z,0.4
2022-12-09T14:08:14.326Z,0.4
2022-12-09T14:09:17.541Z,0.3
2022-12-09T14:10:20.412Z,0.2
2022-12-09T14:11:23.610Z,0.2
2022-12-09T14:12:26.409Z,0.2
2022-12-09T14:13:29.486Z,0.2
2022-12-09T14:14:32.873Z,0.2
2022-12-09T14:15:36.563Z,0.2
2022-12-09T14:16:39.737Z,0.2
2022-12-09T14:17:43.376Z,0.2
2022-12-09T14:18:46.154Z,0.2
2022-12-09T14:19:49.553Z,0.2
2022-12-09T14:20:52.634Z,0.3
2022-12-09T14:21:55.487Z,0.3
2022-12-09T14:22:58.925Z,0.3
2022-12-09T14:24:02.562Z,0.3
2022-12-09T14:25:05.446Z,0.3
2022-12-09T14:26:08.808Z,0.3
2022-12-09T14:27:11.807Z,0.2
2022-12-09T14:28:15.172Z,0.3
2022-12-09T14:29:18.601Z,0.3
2022-12-09T14:30:21.022Z,0.3
2022-12-09T14:31:24.926Z,0.3
2022-12-09T14:32:28.688Z,0.3
2022-12-09T14:33:31.825Z,0.3